Station Historical Data
Daily Summary for September 15, 2017 Units:  Metric    English   Both
« Previous Day
Next Day »
Daily Weekly Monthly Yearly Custom
  High: Low: Average:
Temperature: 17.8 °C 8.9 °C 13.4 °C
Dew Point: 13.5 °C 8.1 °C 10.6 °C
Humidity: 95 % 67 % 83 %
Wind Speed: 14.0 km/h 0.0 km/h 2.7 km/h
Wind Gust: 14.0 km/h - -
Wind:- - South
Pressure: 1016.8 hPa 1011.7 hPa -
Precipitation: 0.0 mm    
Historical Graphs
 
 
Tabular Data for September 15, 2017
Time Temperature Dew Point Pressure Wind Wind Speed Wind Gust Humidity Rainfall Rate (Hourly) solar Conditions
00:03 10.0 °C 9.1 °C 1011.7 hPa SSW 1.4 km/h 4.7 km/h 94 % 0.0 mm meteobridge W/m2
00:09 10.1 °C 9.2 °C 1011.7 hPa South 6.1 km/h 6.1 km/h 94 % 0.0 mm meteobridge W/m2
00:15 10.2 °C 9.3 °C 1011.7 hPa SW 3.5 km/h 5.0 km/h 94 % 0.0 mm meteobridge W/m2
00:22 10.3 °C 9.2 °C 1011.7 hPa SSE 8.7 km/h 8.7 km/h 93 % 0.0 mm meteobridge W/m2
00:28 10.6 °C 9.5 °C 1011.7 hPa SW 6.1 km/h 6.1 km/h 93 % 0.0 mm meteobridge W/m2
00:35 10.9 °C 9.7 °C 1011.7 hPa SSE 5.5 km/h 5.5 km/h 92 % 0.0 mm meteobridge W/m2
00:42 11.0 °C 9.8 °C 1011.7 hPa SW 2.6 km/h 4.0 km/h 92 % 0.0 mm meteobridge W/m2
00:48 11.0 °C 9.8 °C 1011.7 hPa SW 9.0 km/h 9.0 km/h 92 % 0.0 mm meteobridge W/m2
00:55 11.1 °C 9.8 °C 1011.7 hPa SSE 1.4 km/h 3.2 km/h 92 % 0.0 mm meteobridge W/m2
01:00 11.2 °C 9.9 °C 1011.7 hPa SW 2.1 km/h 4.0 km/h 92 % 0.0 mm meteobridge W/m2
01:07 11.3 °C 9.9 °C 1011.7 hPa SSW 1.8 km/h 1.8 km/h 91 % 0.0 mm meteobridge W/m2
01:14 11.4 °C 10.0 °C 1011.7 hPa Calm     91 % 0.0 mm meteobridge W/m2
01:20 11.5 °C 9.9 °C 1011.7 hPa WNW 6.1 km/h 6.1 km/h 90 % 0.0 mm meteobridge W/m2
01:26 11.5 °C 9.9 °C 1011.7 hPa NNE 5.0 km/h 5.0 km/h 90 % 0.0 mm meteobridge W/m2
01:32 11.6 °C 10.0 °C 1011.7 hPa SW 6.4 km/h 6.4 km/h 90 % 0.0 mm meteobridge W/m2
01:38 11.6 °C 9.8 °C 1011.7 hPa Calm   3.2 km/h 89 % 0.0 mm meteobridge W/m2
01:43 11.6 °C 9.8 °C 1011.7 hPa ENE 4.3 km/h 4.3 km/h 89 % 0.0 mm meteobridge W/m2
01:50 11.6 °C 9.8 °C 1011.7 hPa SSW 4.7 km/h 13.7 km/h 89 % 0.0 mm meteobridge W/m2
01:56 11.6 °C 9.8 °C 1011.7 hPa NE 2.1 km/h 2.1 km/h 89 % 0.0 mm meteobridge W/m2
02:01 11.6 °C 9.8 °C 1011.7 hPa SSW 2.6 km/h 2.6 km/h 89 % 0.0 mm meteobridge W/m2
02:08 11.7 °C 9.9 °C 1011.7 hPa SW 1.8 km/h 3.2 km/h 89 % 0.0 mm meteobridge W/m2
02:14 11.7 °C 9.9 °C 1011.7 hPa SSE 3.5 km/h 3.5 km/h 89 % 0.0 mm meteobridge W/m2
02:20 11.6 °C 9.8 °C 1011.7 hPa SSE 3.2 km/h 3.2 km/h 89 % 0.0 mm meteobridge W/m2
02:26 11.6 °C 9.8 °C 1011.7 hPa SSW 4.0 km/h 11.9 km/h 89 % 0.0 mm meteobridge W/m2
02:32 11.6 °C 9.8 °C 1011.7 hPa SE 3.2 km/h 4.0 km/h 89 % 0.0 mm meteobridge W/m2
02:38 11.5 °C 9.7 °C 1011.7 hPa SE 4.3 km/h 4.7 km/h 89 % 0.0 mm meteobridge W/m2
02:44 11.5 °C 9.7 °C 1011.7 hPa South 9.7 km/h 13.0 km/h 89 % 0.0 mm meteobridge W/m2
02:50 11.5 °C 9.7 °C 1011.7 hPa SW 4.0 km/h 4.0 km/h 89 % 0.0 mm meteobridge W/m2
02:56 11.5 °C 9.7 °C 1011.7 hPa SSE 9.3 km/h 9.3 km/h 89 % 0.0 mm meteobridge W/m2
03:03 11.5 °C 9.7 °C 1011.7 hPa SE 11.6 km/h 11.6 km/h 89 % 0.0 mm meteobridge W/m2
03:09 11.4 °C 9.7 °C 1011.7 hPa SSW 4.3 km/h 5.5 km/h 89 % 0.0 mm meteobridge W/m2
03:15 11.4 °C 9.8 °C 1011.7 hPa SW 1.4 km/h 1.4 km/h 90 % 0.0 mm meteobridge W/m2
03:21 11.3 °C 9.7 °C 1011.7 hPa South 4.7 km/h 4.7 km/h 90 % 0.0 mm meteobridge W/m2
03:27 11.1 °C 9.5 °C 1011.7 hPa NE 14.0 km/h 14.0 km/h 90 % 0.0 mm meteobridge W/m2
03:34 11.2 °C 9.8 °C 1011.7 hPa South 5.8 km/h 5.8 km/h 91 % 0.0 mm meteobridge W/m2
03:40 11.3 °C 9.7 °C 1012.8 hPa SSE 1.8 km/h 4.3 km/h 90 % 0.0 mm meteobridge W/m2
03:47 11.4 °C 9.8 °C 1012.8 hPa Calm   10.1 km/h 90 % 0.0 mm meteobridge W/m2
03:53 11.4 °C 9.8 °C 1012.8 hPa NNE 5.0 km/h 5.8 km/h 90 % 0.0 mm meteobridge W/m2
04:00 11.4 °C 9.8 °C 1012.8 hPa SSW 2.6 km/h 11.9 km/h 90 % 0.0 mm meteobridge W/m2
04:06 11.4 °C 9.8 °C 1012.8 hPa SSE 1.8 km/h 1.8 km/h 90 % 0.0 mm meteobridge W/m2
04:12 11.5 °C 9.9 °C 1012.8 hPa Calm     90 % 0.0 mm meteobridge W/m2
04:18 11.5 °C 10.1 °C 1012.8 hPa SW 3.2 km/h 3.2 km/h 91 % 0.0 mm meteobridge W/m2
04:24 11.5 °C 9.9 °C 1012.8 hPa SW 3.5 km/h -1607.4 km/h 90 % 0.0 mm meteobridge W/m2
04:30 11.5 °C 10.1 °C 1012.8 hPa South 1.8 km/h 1.8 km/h 91 % 0.0 mm meteobridge W/m2
04:36 11.5 °C 10.1 °C 1012.8 hPa WSW 4.7 km/h 4.7 km/h 91 % 0.0 mm meteobridge W/m2
04:43 11.5 °C 10.1 °C 1012.8 hPa SW 4.3 km/h 4.3 km/h 91 % 0.0 mm meteobridge W/m2
04:49 11.6 °C 10.2 °C 1012.8 hPa SSW 6.4 km/h 6.4 km/h 91 % 0.0 mm meteobridge W/m2
04:55 11.5 °C 10.1 °C 1012.8 hPa SW 4.7 km/h 4.7 km/h 91 % 0.0 mm meteobridge W/m2
05:02 11.6 °C 10.2 °C 1012.8 hPa SW 5.0 km/h 5.0 km/h 91 % 0.0 mm meteobridge W/m2
05:08 11.6 °C 10.2 °C 1013.8 hPa Calm     91 % 0.0 mm meteobridge W/m2
05:21 11.6 °C 10.2 °C 1013.8 hPa SSE 1.4 km/h 4.3 km/h 91 % 0.0 mm meteobridge W/m2
05:23 11.6 °C 10.2 °C 1013.8 hPa SSW 5.5 km/h 5.5 km/h 91 % 0.0 mm meteobridge W/m2
05:28 11.6 °C 10.2 °C 1013.8 hPa SSE 2.1 km/h 2.1 km/h 91 % 0.0 mm meteobridge W/m2
05:34 11.6 °C 10.2 °C 1013.8 hPa WSW 1.8 km/h 2.1 km/h 91 % 0.0 mm meteobridge W/m2
05:40 11.6 °C 10.3 °C 1013.8 hPa WNW 5.0 km/h 5.0 km/h 92 % 0.0 mm meteobridge W/m2
05:47 11.6 °C 10.3 °C 1013.8 hPa SSW 5.8 km/h 5.8 km/h 92 % 0.0 mm meteobridge W/m2
05:53 11.6 °C 10.3 °C 1013.8 hPa WSW 3.5 km/h 3.5 km/h 92 % 0.0 mm meteobridge W/m2
06:00 11.6 °C 10.3 °C 1013.8 hPa SW 5.8 km/h 5.8 km/h 92 % 0.0 mm meteobridge W/m2
06:04 11.6 °C 10.3 °C 1013.8 hPa SSE 2.1 km/h 3.5 km/h 92 % 0.0 mm meteobridge W/m2
06:11 11.6 °C 10.3 °C 1013.8 hPa South 1.8 km/h 4.0 km/h 92 % 0.0 mm meteobridge W/m2
06:13 11.6 °C 10.3 °C 1013.8 hPa North 3.2 km/h 3.2 km/h 92 % 0.0 mm meteobridge W/m2
06:19 11.6 °C 10.3 °C 1013.8 hPa ESE 8.7 km/h -1607.4 km/h 92 % 0.0 mm meteobridge W/m2
06:25 11.6 °C 10.3 °C 1013.8 hPa South 1.8 km/h 1.8 km/h 92 % 0.0 mm meteobridge W/m2
06:32 11.6 °C 10.3 °C 1013.8 hPa WSW 1.8 km/h 1.8 km/h 92 % 0.0 mm meteobridge W/m2
06:38 11.6 °C 10.3 °C 1013.8 hPa Calm   1.8 km/h 92 % 0.0 mm meteobridge W/m2
06:44 11.6 °C 10.3 °C 1013.8 hPa SSW 2.6 km/h 5.0 km/h 92 % 0.0 mm meteobridge W/m2
06:51 11.6 °C 10.3 °C 1013.8 hPa SSW 2.6 km/h -1607.4 km/h 92 % 0.0 mm meteobridge W/m2
06:58 11.6 °C 10.3 °C 1014.8 hPa Calm   4.7 km/h 92 % 0.0 mm meteobridge W/m2
07:04 11.6 °C 10.3 °C 1014.8 hPa SSW 1.8 km/h 2.6 km/h 92 % 0.0 mm meteobridge W/m2
07:11 11.7 °C 10.4 °C 1014.8 hPa SSW 5.8 km/h 5.8 km/h 92 % 0.0 mm meteobridge W/m2
07:17 11.7 °C 10.6 °C 1014.8 hPa SSE 1.8 km/h 1.8 km/h 93 % 0.0 mm meteobridge W/m2
07:23 11.7 °C 10.6 °C 1014.8 hPa Calm     93 % 0.0 mm meteobridge W/m2
07:30 11.8 °C 10.7 °C 1014.8 hPa Calm     93 % 0.0 mm meteobridge W/m2
07:36 11.9 °C 10.8 °C 1014.8 hPa ESE 3.2 km/h 3.2 km/h 93 % 0.0 mm meteobridge W/m2
07:42 12.0 °C 10.9 °C 1014.8 hPa Calm   10.1 km/h 93 % 0.0 mm meteobridge W/m2
07:49 12.0 °C 10.9 °C 1014.8 hPa SSW 3.2 km/h 3.2 km/h 93 % 0.0 mm meteobridge W/m2
07:55 12.0 °C 10.9 °C 1014.8 hPa SSE 4.0 km/h 4.0 km/h 93 % 0.0 mm meteobridge W/m2
08:02 12.0 °C 10.9 °C 1014.8 hPa South 4.3 km/h 4.3 km/h 93 % 0.0 mm meteobridge W/m2
08:08 12.0 °C 10.9 °C 1014.8 hPa SSW 2.1 km/h -1607.4 km/h 93 % 0.0 mm meteobridge W/m2
08:15 12.2 °C 11.1 °C 1014.8 hPa SSE 2.6 km/h -1607.4 km/h 93 % 0.0 mm meteobridge W/m2
08:21 12.5 °C 11.2 °C 1014.8 hPa SW 5.0 km/h 5.0 km/h 92 % 0.0 mm meteobridge W/m2
08:27 12.4 °C 11.1 °C 1014.8 hPa SSE 4.7 km/h 4.7 km/h 92 % 0.0 mm meteobridge W/m2
08:34 12.8 °C 11.5 °C 1014.8 hPa SSE 1.4 km/h 1.4 km/h 92 % 0.0 mm meteobridge W/m2
08:41 12.9 °C 11.6 °C 1015.8 hPa WSW 2.1 km/h 2.1 km/h 92 % 0.0 mm meteobridge W/m2
08:46 13.1 °C 11.8 °C 1015.8 hPa Calm     92 % 0.0 mm meteobridge W/m2
08:47 13.1 °C 11.8 °C 1015.8 hPa Calm   1.8 km/h 92 % 0.0 mm meteobridge W/m2
08:52 13.3 °C 11.9 °C 1015.8 hPa SSW 5.5 km/h 5.5 km/h 91 % 0.0 mm meteobridge W/m2
08:59 13.4 °C 12.0 °C 1015.8 hPa SSE 6.1 km/h -1607.4 km/h 91 % 0.0 mm meteobridge W/m2
09:15 13.4 °C 11.8 °C 1015.8 hPa SSE 1.8 km/h 4.3 km/h 90 % 0.0 mm meteobridge W/m2
09:21 13.5 °C 11.9 °C 1015.8 hPa SSE 4.7 km/h 4.7 km/h 90 % 0.0 mm meteobridge W/m2
09:26 13.5 °C 11.9 °C 1015.8 hPa SSE 4.3 km/h 4.3 km/h 90 % 0.0 mm meteobridge W/m2
09:32 13.5 °C 11.7 °C 1015.8 hPa SSW 4.0 km/h 4.0 km/h 89 % 0.0 mm meteobridge W/m2
09:38 13.5 °C 11.7 °C 1015.8 hPa Calm   6.4 km/h 89 % 0.0 mm meteobridge W/m2
09:45 13.8 °C 12.0 °C 1015.8 hPa SSW 11.9 km/h 11.9 km/h 89 % 0.0 mm meteobridge W/m2
09:51 13.8 °C 11.7 °C 1015.8 hPa SW 2.1 km/h 2.1 km/h 87 % 0.0 mm meteobridge W/m2
09:57 14.0 °C 12.2 °C 1015.8 hPa SSW 9.7 km/h 9.7 km/h 89 % 0.0 mm meteobridge W/m2
10:05 14.5 °C 12.4 °C 1015.8 hPa WSW 3.5 km/h 5.0 km/h 87 % 0.0 mm meteobridge W/m2
10:11 14.7 °C 12.4 °C 1015.8 hPa South 1.4 km/h 5.0 km/h 86 % 0.0 mm meteobridge W/m2
10:17 14.9 °C 12.4 °C 1015.8 hPa ENE 8.7 km/h 8.7 km/h 85 % 0.0 mm meteobridge W/m2
10:22 15.0 °C 12.5 °C 1015.8 hPa ESE 1.4 km/h 1.4 km/h 85 % 0.0 mm meteobridge W/m2
10:28 14.9 °C 12.2 °C 1016.8 hPa South 4.3 km/h 6.4 km/h 84 % 0.0 mm meteobridge W/m2
10:35 14.8 °C 12.1 °C 1016.8 hPa SE 8.7 km/h 8.7 km/h 84 % 0.0 mm meteobridge W/m2
10:41 15.2 °C 12.7 °C 1016.8 hPa SSW 1.4 km/h 2.1 km/h 85 % 0.0 mm meteobridge W/m2
10:47 15.4 °C 12.7 °C 1016.8 hPa Calm     84 % 0.0 mm meteobridge W/m2
10:53 15.3 °C 12.4 °C 1015.8 hPa SSW 6.1 km/h 7.6 km/h 83 % 0.0 mm meteobridge W/m2
11:00 15.8 °C 12.9 °C 1015.8 hPa WSW 2.6 km/h 2.6 km/h 83 % 0.0 mm meteobridge W/m2
11:06 16.1 °C 13.2 °C 1015.8 hPa WSW 4.7 km/h 4.7 km/h 83 % 0.0 mm meteobridge W/m2
11:13 16.1 °C 13.0 °C 1015.8 hPa South 4.0 km/h 5.8 km/h 82 % 0.0 mm meteobridge W/m2
11:20 16.4 °C 12.9 °C 1015.8 hPa SSE 5.8 km/h 5.8 km/h 80 % 0.0 mm meteobridge W/m2
11:27 16.9 °C 13.4 °C 1015.8 hPa SW 3.2 km/h 3.5 km/h 80 % 0.0 mm meteobridge W/m2
11:33 17.0 °C 13.5 °C 1015.8 hPa SSW 2.1 km/h 2.1 km/h 80 % 0.0 mm meteobridge W/m2
11:39 16.6 °C 12.9 °C 1015.8 hPa South 2.1 km/h 2.1 km/h 79 % 0.0 mm meteobridge W/m2
11:46 16.6 °C 12.9 °C 1015.8 hPa NNE 4.3 km/h 4.3 km/h 79 % 0.0 mm meteobridge W/m2
11:52 16.6 °C 12.9 °C 1015.8 hPa Calm   3.5 km/h 79 % 0.0 mm meteobridge W/m2
11:57 16.4 °C 12.7 °C 1015.8 hPa SSW 3.2 km/h 3.2 km/h 79 % 0.0 mm meteobridge W/m2
12:05 16.0 °C 12.4 °C 1015.8 hPa SSW 1.8 km/h 1.8 km/h 79 % 0.0 mm meteobridge W/m2
12:11 16.0 °C 12.4 °C 1015.8 hPa NNW 6.4 km/h -1607.4 km/h 79 % 0.0 mm meteobridge W/m2
12:35 15.9 °C 12.5 °C 1015.8 hPa South 2.1 km/h 2.1 km/h 80 % 0.0 mm meteobridge W/m2
12:59 16.3 °C 12.5 °C 1015.8 hPa SSW 7.2 km/h 7.2 km/h 78 % 0.0 mm meteobridge W/m2
13:05 16.1 °C 12.3 °C 1015.8 hPa Calm   5.8 km/h 78 % 0.0 mm meteobridge W/m2
13:11 16.1 °C 12.3 °C 1015.8 hPa SSE 5.0 km/h 5.0 km/h 78 % 0.0 mm meteobridge W/m2
13:17 16.9 °C 12.8 °C 1015.8 hPa South 1.8 km/h 1.8 km/h 77 % 0.0 mm meteobridge W/m2
13:23 17.3 °C 12.8 °C 1015.8 hPa SSW 1.8 km/h 4.7 km/h 75 % 0.0 mm meteobridge W/m2
13:29 17.5 °C 12.8 °C 1015.8 hPa SSW 8.7 km/h 8.7 km/h 74 % 0.0 mm meteobridge W/m2
13:35 17.3 °C 12.6 °C 1015.8 hPa SSW 4.0 km/h 4.0 km/h 74 % 0.0 mm meteobridge W/m2
13:41 17.2 °C 12.5 °C 1015.8 hPa Calm   6.1 km/h 74 % 0.0 mm meteobridge W/m2
13:47 17.3 °C 12.4 °C 1015.8 hPa South 5.8 km/h 6.4 km/h 73 % 0.0 mm meteobridge W/m2
13:53 17.8 °C 13.1 °C 1015.8 hPa SSW 6.9 km/h 7.2 km/h 74 % 0.0 mm meteobridge W/m2
13:59 17.7 °C 13.0 °C 1015.8 hPa SSW 5.0 km/h 5.0 km/h 74 % 0.0 mm meteobridge W/m2
14:05 17.4 °C 12.5 °C 1015.8 hPa SSW 3.2 km/h 3.5 km/h 73 % 0.0 mm meteobridge W/m2
14:11 17.2 °C 12.3 °C 1015.8 hPa SSW 3.2 km/h 3.2 km/h 73 % 0.0 mm meteobridge W/m2
14:17 17.2 °C 12.5 °C 1015.8 hPa WSW 4.7 km/h 4.7 km/h 74 % 0.0 mm meteobridge W/m2
14:23 17.2 °C 12.5 °C 1015.8 hPa SSW 3.5 km/h 3.5 km/h 74 % 0.0 mm meteobridge W/m2
14:29 17.1 °C 12.2 °C 1015.8 hPa SSW 4.0 km/h 5.5 km/h 73 % 0.0 mm meteobridge W/m2
14:41 17.6 °C 12.7 °C 1015.8 hPa SSE 1.8 km/h 6.1 km/h 73 % 0.0 mm meteobridge W/m2
14:47 17.4 °C 12.3 °C 1015.8 hPa West 3.5 km/h 5.0 km/h 72 % 0.0 mm meteobridge W/m2
14:53 17.4 °C 12.3 °C 1015.8 hPa WSW 2.6 km/h 2.6 km/h 72 % 0.0 mm meteobridge W/m2
14:59 17.4 °C 12.3 °C 1015.8 hPa SSE 6.4 km/h 6.4 km/h 72 % 0.0 mm meteobridge W/m2
15:05 17.3 °C 12.0 °C 1015.8 hPa South 4.0 km/h 6.4 km/h 71 % 0.0 mm meteobridge W/m2
15:12 17.5 °C 12.2 °C 1014.8 hPa SW 2.1 km/h 4.7 km/h 71 % 0.0 mm meteobridge W/m2
15:19 17.2 °C 11.9 °C 1014.8 hPa Calm   3.2 km/h 71 % 0.0 mm meteobridge W/m2
15:25 17.1 °C 12.0 °C 1014.8 hPa SSW 4.0 km/h 4.7 km/h 72 % 0.0 mm meteobridge W/m2
15:31 16.9 °C 11.6 °C 1014.8 hPa SSE 3.5 km/h 3.5 km/h 71 % 0.0 mm meteobridge W/m2
15:37 17.1 °C 11.8 °C 1014.8 hPa Calm   2.1 km/h 71 % 0.0 mm meteobridge W/m2
15:43 16.9 °C 11.6 °C 1014.8 hPa NE 4.0 km/h 4.0 km/h 71 % 0.0 mm meteobridge W/m2
15:49 17.0 °C 11.7 °C 1014.8 hPa SSE 1.8 km/h 3.2 km/h 71 % 0.0 mm meteobridge W/m2
15:55 17.1 °C 11.8 °C 1014.8 hPa SSE 2.1 km/h 2.1 km/h 71 % 0.0 mm meteobridge W/m2
16:01 17.2 °C 11.7 °C 1014.8 hPa SSE 4.3 km/h 4.3 km/h 70 % 0.0 mm meteobridge W/m2
16:07 17.2 °C 11.7 °C 1014.8 hPa SSE 5.8 km/h 5.8 km/h 70 % 0.0 mm meteobridge W/m2
16:13 17.2 °C 11.7 °C 1014.8 hPa Calm   4.0 km/h 70 % 0.0 mm meteobridge W/m2
16:19 17.4 °C 11.9 °C 1014.8 hPa SSE 3.2 km/h 3.2 km/h 70 % 0.0 mm meteobridge W/m2
16:25 17.5 °C 11.7 °C 1014.8 hPa South 5.5 km/h 5.5 km/h 69 % 0.0 mm meteobridge W/m2
16:31 17.6 °C 11.8 °C 1014.8 hPa South 4.0 km/h 4.0 km/h 69 % 0.0 mm meteobridge W/m2
16:37 17.1 °C 11.4 °C 1014.8 hPa Calm     69 % 0.0 mm meteobridge W/m2
16:43 16.9 °C 11.2 °C 1014.8 hPa Calm     69 % 0.0 mm meteobridge W/m2
16:49 17.1 °C 11.4 °C 1014.8 hPa Calm     69 % 0.0 mm meteobridge W/m2
16:55 17.1 °C 11.4 °C 1014.8 hPa SSW 5.8 km/h 5.8 km/h 69 % 0.0 mm meteobridge W/m2
17:01 17.1 °C 11.4 °C 1014.8 hPa SSE 1.8 km/h 5.5 km/h 69 % 0.0 mm meteobridge W/m2
17:07 17.1 °C 11.1 °C 1014.8 hPa Calm     68 % 0.0 mm meteobridge W/m2
17:13 17.0 °C 11.3 °C 1014.8 hPa Calm   1.4 km/h 69 % 0.0 mm meteobridge W/m2
17:19 16.5 °C 10.6 °C 1014.8 hPa SSW 3.5 km/h 4.0 km/h 68 % 0.0 mm meteobridge W/m2
17:25 16.5 °C 10.6 °C 1014.8 hPa South 4.7 km/h 4.7 km/h 68 % 0.0 mm meteobridge W/m2
17:31 16.5 °C 10.4 °C 1014.8 hPa Calm   4.0 km/h 67 % 0.0 mm meteobridge W/m2
17:37 16.5 °C 10.4 °C 1014.8 hPa Calm   3.2 km/h 67 % 0.0 mm meteobridge W/m2
17:43 16.4 °C 10.5 °C 1014.8 hPa SW 3.5 km/h 3.5 km/h 68 % 0.0 mm meteobridge W/m2
17:49 16.2 °C 10.3 °C 1014.8 hPa SSW 4.3 km/h 4.3 km/h 68 % 0.0 mm meteobridge W/m2
17:55 16.0 °C 10.3 °C 1014.8 hPa SW 1.8 km/h 2.1 km/h 69 % 0.0 mm meteobridge W/m2
18:01 16.0 °C 10.3 °C 1014.8 hPa Calm   4.0 km/h 69 % 0.0 mm meteobridge W/m2
18:07 15.9 °C 10.2 °C 1014.8 hPa Calm     69 % 0.0 mm meteobridge W/m2
18:14 15.8 °C 10.1 °C 1014.8 hPa SSW 3.2 km/h 3.5 km/h 69 % 0.0 mm meteobridge W/m2
18:20 15.6 °C 10.1 °C 1014.8 hPa Calm   2.6 km/h 70 % 0.0 mm meteobridge W/m2
18:26 15.5 °C 10.1 °C 1014.8 hPa SSW 1.8 km/h 4.3 km/h 70 % 0.0 mm meteobridge W/m2
18:32 15.5 °C 10.1 °C 1014.8 hPa SSW 1.4 km/h 2.6 km/h 70 % 0.0 mm meteobridge W/m2
18:38 15.4 °C 10.2 °C 1014.8 hPa SSW 3.2 km/h 3.2 km/h 71 % 0.0 mm meteobridge W/m2
18:44 15.5 °C 10.3 °C 1013.8 hPa SSW 1.8 km/h 1.8 km/h 71 % 0.0 mm meteobridge W/m2
18:50 15.4 °C 10.2 °C 1013.8 hPa SSW 1.8 km/h 1.8 km/h 71 % 0.0 mm meteobridge W/m2
18:56 15.2 °C 10.2 °C 1013.8 hPa Calm     72 % 0.0 mm meteobridge W/m2
19:02 14.7 °C 9.7 °C 1013.8 hPa SSW 2.6 km/h 2.6 km/h 72 % 0.0 mm meteobridge W/m2
19:08 14.5 °C 9.7 °C 1013.8 hPa SSW 1.4 km/h 1.4 km/h 73 % 0.0 mm meteobridge W/m2
19:14 14.2 °C 9.4 °C 1013.8 hPa Calm   2.6 km/h 73 % 0.0 mm meteobridge W/m2
19:20 13.9 °C 9.3 °C 1013.8 hPa Calm     74 % 0.0 mm meteobridge W/m2
19:26 13.8 °C 9.2 °C 1013.8 hPa Calm     74 % 0.0 mm meteobridge W/m2
19:32 13.6 °C 9.3 °C 1013.8 hPa Calm     75 % 0.0 mm meteobridge W/m2
19:38 13.5 °C 9.2 °C 1013.8 hPa Calm     75 % 0.0 mm meteobridge W/m2
19:44 13.5 °C 9.5 °C 1013.8 hPa Calm     77 % 0.0 mm meteobridge W/m2
19:51 13.5 °C 9.5 °C 1013.8 hPa Calm     77 % 0.0 mm meteobridge W/m2
19:57 13.5 °C 9.5 °C 1014.8 hPa Calm     77 % 0.0 mm meteobridge W/m2
20:03 13.5 °C 9.7 °C 1014.8 hPa Calm     78 % 0.0 mm meteobridge W/m2
20:09 13.4 °C 9.6 °C 1014.8 hPa Calm     78 % 0.0 mm meteobridge W/m2
20:15 13.3 °C 9.7 °C 1014.8 hPa Calm     79 % 0.0 mm meteobridge W/m2
20:21 13.3 °C 9.7 °C 1014.8 hPa Calm     79 % 0.0 mm meteobridge W/m2
20:27 13.0 °C 9.4 °C 1014.8 hPa Calm     79 % 0.0 mm meteobridge W/m2
20:33 12.9 °C 9.5 °C 1014.8 hPa Calm     80 % 0.0 mm meteobridge W/m2
20:39 12.8 °C 9.4 °C 1014.8 hPa Calm     80 % 0.0 mm meteobridge W/m2
20:45 12.6 °C 9.2 °C 1014.8 hPa Calm     80 % 0.0 mm meteobridge W/m2
20:51 12.4 °C 9.0 °C 1014.8 hPa Calm     80 % 0.0 mm meteobridge W/m2
21:01 12.1 °C 8.9 °C 1014.8 hPa Calm     81 % 0.0 mm meteobridge W/m2
21:08 11.8 °C 8.8 °C 1014.8 hPa Calm     82 % 0.0 mm meteobridge W/m2
21:14 11.6 °C 8.6 °C 1014.8 hPa Calm     82 % 0.0 mm meteobridge W/m2
21:20 11.6 °C 8.8 °C 1014.8 hPa Calm     83 % 0.0 mm meteobridge W/m2
21:26 11.5 °C 8.7 °C 1014.8 hPa Calm     83 % 0.0 mm meteobridge W/m2
21:32 11.3 °C 8.7 °C 1014.8 hPa Calm     84 % 0.0 mm meteobridge W/m2
21:38 11.3 °C 8.7 °C 1014.8 hPa Calm     84 % 0.0 mm meteobridge W/m2
21:44 11.2 °C 8.8 °C 1014.8 hPa Calm     85 % 0.0 mm meteobridge W/m2
21:50 11.0 °C 8.6 °C 1014.8 hPa Calm     85 % 0.0 mm meteobridge W/m2
21:56 10.9 °C 8.6 °C 1014.8 hPa Calm     86 % 0.0 mm meteobridge W/m2
22:02 10.7 °C 8.6 °C 1014.8 hPa Calm     87 % 0.0 mm meteobridge W/m2
22:08 10.5 °C 8.4 °C 1014.8 hPa Calm     87 % 0.0 mm meteobridge W/m2
22:14 10.5 °C 8.4 °C 1014.8 hPa Calm     87 % 0.0 mm meteobridge W/m2
22:20 10.3 °C 8.6 °C 1014.8 hPa Calm     89 % 0.0 mm meteobridge W/m2
22:26 10.3 °C 8.7 °C 1014.8 hPa Calm     90 % 0.0 mm meteobridge W/m2
22:32 10.3 °C 8.7 °C 1014.8 hPa Calm     90 % 0.0 mm meteobridge W/m2
22:38 10.3 °C 8.7 °C 1014.8 hPa Calm     90 % 0.0 mm meteobridge W/m2
22:44 10.3 °C 8.9 °C 1014.8 hPa Calm     91 % 0.0 mm meteobridge W/m2
22:50 10.3 °C 8.9 °C 1014.8 hPa Calm     91 % 0.0 mm meteobridge W/m2
22:56 10.2 °C 8.8 °C 1014.8 hPa Calm     91 % 0.0 mm meteobridge W/m2
23:02 10.2 °C 9.0 °C 1014.8 hPa Calm     92 % 0.0 mm meteobridge W/m2
23:08 10.1 °C 8.9 °C 1014.8 hPa Calm     92 % 0.0 mm meteobridge W/m2
23:14 10.0 °C 8.8 °C 1014.8 hPa Calm     92 % 0.0 mm meteobridge W/m2
23:20 9.8 °C 8.6 °C 1014.8 hPa Calm     92 % 0.0 mm meteobridge W/m2
23:26 9.6 °C 8.4 °C 1014.8 hPa Calm     92 % 0.0 mm meteobridge W/m2
23:32 9.5 °C 8.4 °C 1014.8 hPa Calm     93 % 0.0 mm meteobridge W/m2
23:38 9.4 °C 8.3 °C 1014.8 hPa Calm     93 % 0.0 mm meteobridge W/m2
23:44 9.4 °C 8.3 °C 1014.8 hPa Calm     93 % 0.0 mm meteobridge W/m2
23:50 9.1 °C 8.2 °C 1014.8 hPa Calm     94 % 0.0 mm meteobridge W/m2
23:56 8.9 °C 8.1 °C 1014.8 hPa Calm     95 % 0.0 mm meteobridge W/m2
Juneau County Weather
Compliments of Weather Underground - 2.25 mb